sensor_id;sensor_type;location;lat;lon;timestamp;P1;durP1;ratioP1;P2;durP2;ratioP2
13981;SDS011;7065;50.880;5.502;2023-05-08T00:01:53;14.20;;;12.80;;
13981;SDS011;7065;50.880;5.502;2023-05-08T00:04:19;13.30;;;12.10;;
13981;SDS011;7065;50.880;5.502;2023-05-08T00:06:47;15.18;;;13.45;;
13981;SDS011;7065;50.880;5.502;2023-05-08T00:09:13;12.52;;;11.32;;
13981;SDS011;7065;50.880;5.502;2023-05-08T00:11:40;12.05;;;10.95;;
13981;SDS011;7065;50.880;5.502;2023-05-08T00:14:05;11.13;;;10.02;;
13981;SDS011;7065;50.880;5.502;2023-05-08T00:16:31;11.07;;;10.07;;
13981;SDS011;7065;50.880;5.502;2023-05-08T00:18:57;12.48;;;11.38;;
13981;SDS011;7065;50.880;5.502;2023-05-08T00:21:24;11.52;;;10.52;;
13981;SDS011;7065;50.880;5.502;2023-05-08T00:23:50;11.27;;;10.27;;
13981;SDS011;7065;50.880;5.502;2023-05-08T00:26:16;10.75;;;9.85;;
13981;SDS011;7065;50.880;5.502;2023-05-08T00:28:41;10.75;;;9.82;;
13981;SDS011;7065;50.880;5.502;2023-05-08T00:31:07;13.55;;;12.30;;
13981;SDS011;7065;50.880;5.502;2023-05-08T00:33:33;11.68;;;10.68;;
13981;SDS011;7065;50.880;5.502;2023-05-08T00:36:02;10.73;;;9.82;;
13981;SDS011;7065;50.880;5.502;2023-05-08T00:38:29;8.88;;;8.15;;
13981;SDS011;7065;50.880;5.502;2023-05-08T00:40:59;8.15;;;7.43;;
13981;SDS011;7065;50.880;5.502;2023-05-08T00:43:25;8.70;;;7.88;;
13981;SDS011;7065;50.880;5.502;2023-05-08T00:45:54;8.32;;;7.65;;
13981;SDS011;7065;50.880;5.502;2023-05-08T00:48:21;8.65;;;7.95;;
13981;SDS011;7065;50.880;5.502;2023-05-08T00:50:49;9.15;;;8.38;;
13981;SDS011;7065;50.880;5.502;2023-05-08T00:53:16;8.88;;;8.07;;
13981;SDS011;7065;50.880;5.502;2023-05-08T00:55:43;9.23;;;8.43;;
13981;SDS011;7065;50.880;5.502;2023-05-08T00:58:09;13.30;;;12.10;;
13981;SDS011;7065;50.880;5.502;2023-05-08T01:00:36;14.43;;;13.02;;
13981;SDS011;7065;50.880;5.502;2023-05-08T01:03:04;15.90;;;14.50;;
13981;SDS011;7065;50.880;5.502;2023-05-08T01:05:30;14.82;;;13.30;;
13981;SDS011;7065;50.880;5.502;2023-05-08T01:07:56;13.00;;;11.90;;
13981;SDS011;7065;50.880;5.502;2023-05-08T01:10:21;13.60;;;12.30;;
13981;SDS011;7065;50.880;5.502;2023-05-08T01:15:48;14.55;;;13.20;;
13981;SDS011;7065;50.880;5.502;2023-05-08T01:18:20;13.70;;;12.43;;
13981;SDS011;7065;50.880;5.502;2023-05-08T01:20:56;14.52;;;13.23;;
13981;SDS011;7065;50.880;5.502;2023-05-08T01:31:11;13.15;;;11.95;;
13981;SDS011;7065;50.880;5.502;2023-05-08T01:36:32;12.48;;;11.40;;
13981;SDS011;7065;50.880;5.502;2023-05-08T01:42:14;12.70;;;11.60;;
13981;SDS011;7065;50.880;5.502;2023-05-08T01:44:50;14.00;;;12.80;;
13981;SDS011;7065;50.880;5.502;2023-05-08T01:47:25;14.60;;;13.27;;
13981;SDS011;7065;50.880;5.502;2023-05-08T01:49:57;17.88;;;16.25;;
13981;SDS011;7065;50.880;5.502;2023-05-08T01:52:34;16.15;;;14.63;;
13981;SDS011;7065;50.880;5.502;2023-05-08T01:55:07;15.52;;;14.13;;
13981;SDS011;7065;50.880;5.502;2023-05-08T01:57:37;17.25;;;15.68;;
13981;SDS011;7065;50.880;5.502;2023-05-08T02:00:07;18.95;;;17.20;;
13981;SDS011;7065;50.880;5.502;2023-05-08T02:02:34;20.27;;;18.38;;
13981;SDS011;7065;50.880;5.502;2023-05-08T02:05:03;19.48;;;17.50;;
13981;SDS011;7065;50.880;5.502;2023-05-08T02:07:31;19.65;;;17.60;;
13981;SDS011;7065;50.880;5.502;2023-05-08T02:09:59;19.13;;;17.27;;
13981;SDS011;7065;50.880;5.502;2023-05-08T02:12:27;16.75;;;15.10;;
13981;SDS011;7065;50.880;5.502;2023-05-08T02:14:55;17.65;;;15.68;;
13981;SDS011;7065;50.880;5.502;2023-05-08T02:17:21;16.92;;;15.30;;
13981;SDS011;7065;50.880;5.502;2023-05-08T02:19:48;18.38;;;16.67;;
13981;SDS011;7065;50.880;5.502;2023-05-08T02:22:15;22.15;;;20.05;;
13981;SDS011;7065;50.880;5.502;2023-05-08T02:24:42;22.15;;;19.88;;
13981;SDS011;7065;50.880;5.502;2023-05-08T02:27:09;19.92;;;18.02;;
13981;SDS011;7065;50.880;5.502;2023-05-08T02:29:36;19.48;;;17.67;;
13981;SDS011;7065;50.880;5.502;2023-05-08T02:32:02;19.88;;;17.98;;
13981;SDS011;7065;50.880;5.502;2023-05-08T02:34:30;19.10;;;17.17;;
13981;SDS011;7065;50.880;5.502;2023-05-08T02:36:56;22.27;;;20.13;;
13981;SDS011;7065;50.880;5.502;2023-05-08T02:39:24;21.58;;;19.48;;
13981;SDS011;7065;50.880;5.502;2023-05-08T02:41:53;22.75;;;20.35;;
13981;SDS011;7065;50.880;5.502;2023-05-08T02:44:19;20.58;;;18.58;;
13981;SDS011;7065;50.880;5.502;2023-05-08T02:46:51;20.73;;;18.75;;
13981;SDS011;7065;50.880;5.502;2023-05-08T02:52:31;17.25;;;15.57;;
13981;SDS011;7065;50.880;5.502;2023-05-08T02:55:03;16.25;;;14.75;;
13981;SDS011;7065;50.880;5.502;2023-05-08T02:57:52;16.77;;;15.27;;
13981;SDS011;7065;50.880;5.502;2023-05-08T03:00:41;15.13;;;13.73;;
13981;SDS011;7065;50.880;5.502;2023-05-08T03:03:25;14.57;;;13.27;;
13981;SDS011;7065;50.880;5.502;2023-05-08T03:05:56;14.48;;;13.18;;
13981;SDS011;7065;50.880;5.502;2023-05-08T03:08:34;14.30;;;13.02;;
13981;SDS011;7065;50.880;5.502;2023-05-08T03:11:01;15.88;;;14.27;;
13981;SDS011;7065;50.880;5.502;2023-05-08T03:13:33;18.15;;;16.33;;
13981;SDS011;7065;50.880;5.502;2023-05-08T03:16:01;18.15;;;16.30;;
13981;SDS011;7065;50.880;5.502;2023-05-08T03:18:40;15.48;;;14.00;;
13981;SDS011;7065;50.880;5.502;2023-05-08T03:21:11;16.40;;;14.68;;
13981;SDS011;7065;50.880;5.502;2023-05-08T03:23:39;18.50;;;16.40;;
13981;SDS011;7065;50.880;5.502;2023-05-08T03:26:07;18.83;;;17.13;;
13981;SDS011;7065;50.880;5.502;2023-05-08T03:28:34;18.38;;;16.58;;
13981;SDS011;7065;50.880;5.502;2023-05-08T03:31:02;17.77;;;15.50;;
13981;SDS011;7065;50.880;5.502;2023-05-08T03:33:30;16.88;;;14.65;;
13981;SDS011;7065;50.880;5.502;2023-05-08T03:35:58;17.05;;;15.52;;
13981;SDS011;7065;50.880;5.502;2023-05-08T03:38:23;18.02;;;16.33;;
13981;SDS011;7065;50.880;5.502;2023-05-08T03:40:50;18.77;;;16.90;;
13981;SDS011;7065;50.880;5.502;2023-05-08T03:43:15;16.63;;;14.95;;
13981;SDS011;7065;50.880;5.502;2023-05-08T03:45:44;22.15;;;19.80;;
13981;SDS011;7065;50.880;5.502;2023-05-08T03:48:10;24.75;;;22.17;;
13981;SDS011;7065;50.880;5.502;2023-05-08T03:50:37;26.98;;;24.13;;
13981;SDS011;7065;50.880;5.502;2023-05-08T03:53:03;29.80;;;26.38;;
13981;SDS011;7065;50.880;5.502;2023-05-08T03:55:29;31.83;;;27.02;;
13981;SDS011;7065;50.880;5.502;2023-05-08T03:57:56;30.17;;;26.70;;
13981;SDS011;7065;50.880;5.502;2023-05-08T04:00:36;36.85;;;29.60;;
13981;SDS011;7065;50.880;5.502;2023-05-08T04:03:17;36.00;;;29.55;;
13981;SDS011;7065;50.880;5.502;2023-05-08T04:05:58;33.83;;;28.67;;
13981;SDS011;7065;50.880;5.502;2023-05-08T04:08:31;39.10;;;30.58;;
13981;SDS011;7065;50.880;5.502;2023-05-08T04:14:05;39.17;;;29.92;;
13981;SDS011;7065;50.880;5.502;2023-05-08T04:16:38;43.10;;;33.80;;
13981;SDS011;7065;50.880;5.502;2023-05-08T04:19:10;43.75;;;34.28;;
13981;SDS011;7065;50.880;5.502;2023-05-08T04:21:42;46.75;;;34.97;;
13981;SDS011;7065;50.880;5.502;2023-05-08T04:24:11;48.22;;;35.47;;
13981;SDS011;7065;50.880;5.502;2023-05-08T04:26:39;47.90;;;35.45;;
13981;SDS011;7065;50.880;5.502;2023-05-08T04:29:05;47.90;;;35.28;;
13981;SDS011;7065;50.880;5.502;2023-05-08T04:31:31;49.38;;;35.90;;
13981;SDS011;7065;50.880;5.502;2023-05-08T04:33:59;50.50;;;35.65;;
13981;SDS011;7065;50.880;5.502;2023-05-08T04:36:25;49.75;;;36.17;;
13981;SDS011;7065;50.880;5.502;2023-05-08T04:38:53;50.90;;;36.30;;
13981;SDS011;7065;50.880;5.502;2023-05-08T04:41:19;53.50;;;37.33;;
13981;SDS011;7065;50.880;5.502;2023-05-08T04:43:45;55.97;;;37.08;;
13981;SDS011;7065;50.880;5.502;2023-05-08T04:46:11;59.50;;;39.55;;
13981;SDS011;7065;50.880;5.502;2023-05-08T04:48:37;57.40;;;39.00;;
13981;SDS011;7065;50.880;5.502;2023-05-08T04:51:03;58.95;;;39.88;;
13981;SDS011;7065;50.880;5.502;2023-05-08T04:53:29;64.97;;;41.15;;
13981;SDS011;7065;50.880;5.502;2023-05-08T04:55:55;63.08;;;41.20;;
13981;SDS011;7065;50.880;5.502;2023-05-08T04:58:22;66.88;;;40.92;;
13981;SDS011;7065;50.880;5.502;2023-05-08T05:00:48;65.38;;;41.05;;
13981;SDS011;7065;50.880;5.502;2023-05-08T05:03:13;71.25;;;44.70;;
13981;SDS011;7065;50.880;5.502;2023-05-08T05:05:39;72.10;;;43.05;;
13981;SDS011;7065;50.880;5.502;2023-05-08T05:08:05;74.43;;;45.60;;
13981;SDS011;7065;50.880;5.502;2023-05-08T05:10:30;69.05;;;44.60;;
13981;SDS011;7065;50.880;5.502;2023-05-08T05:12:56;72.80;;;45.58;;
13981;SDS011;7065;50.880;5.502;2023-05-08T05:15:22;76.63;;;45.65;;
13981;SDS011;7065;50.880;5.502;2023-05-08T05:17:47;72.43;;;44.53;;
13981;SDS011;7065;50.880;5.502;2023-05-08T05:20:13;77.70;;;46.90;;
13981;SDS011;7065;50.880;5.502;2023-05-08T05:22:39;79.97;;;47.50;;
13981;SDS011;7065;50.880;5.502;2023-05-08T05:25:05;84.25;;;49.25;;
13981;SDS011;7065;50.880;5.502;2023-05-08T05:27:33;95.53;;;51.75;;
13981;SDS011;7065;50.880;5.502;2023-05-08T05:30:00;86.05;;;50.30;;
13981;SDS011;7065;50.880;5.502;2023-05-08T05:32:27;103.50;;;52.97;;
13981;SDS011;7065;50.880;5.502;2023-05-08T05:34:52;100.38;;;52.70;;
13981;SDS011;7065;50.880;5.502;2023-05-08T05:37:19;99.85;;;52.85;;
13981;SDS011;7065;50.880;5.502;2023-05-08T05:39:45;104.43;;;54.75;;
13981;SDS011;7065;50.880;5.502;2023-05-08T05:42:10;105.18;;;51.50;;
13981;SDS011;7065;50.880;5.502;2023-05-08T05:44:36;107.65;;;54.22;;
13981;SDS011;7065;50.880;5.502;2023-05-08T05:47:02;104.95;;;53.63;;
13981;SDS011;7065;50.880;5.502;2023-05-08T05:49:29;113.07;;;56.95;;
13981;SDS011;7065;50.880;5.502;2023-05-08T05:51:55;116.18;;;56.35;;
13981;SDS011;7065;50.880;5.502;2023-05-08T05:54:21;110.75;;;56.38;;
13981;SDS011;7065;50.880;5.502;2023-05-08T05:56:46;112.43;;;54.38;;
13981;SDS011;7065;50.880;5.502;2023-05-08T05:59:12;103.30;;;52.42;;
13981;SDS011;7065;50.880;5.502;2023-05-08T06:01:38;99.32;;;50.88;;
13981;SDS011;7065;50.880;5.502;2023-05-08T06:04:04;95.40;;;50.97;;
13981;SDS011;7065;50.880;5.502;2023-05-08T06:06:30;103.43;;;53.17;;
13981;SDS011;7065;50.880;5.502;2023-05-08T06:08:56;103.00;;;52.25;;
13981;SDS011;7065;50.880;5.502;2023-05-08T06:11:22;101.25;;;51.17;;
13981;SDS011;7065;50.880;5.502;2023-05-08T06:13:48;101.70;;;53.78;;
13981;SDS011;7065;50.880;5.502;2023-05-08T06:16:14;101.15;;;53.22;;
13981;SDS011;7065;50.880;5.502;2023-05-08T06:18:39;101.32;;;52.97;;
13981;SDS011;7065;50.880;5.502;2023-05-08T06:21:05;102.78;;;54.22;;
13981;SDS011;7065;50.880;5.502;2023-05-08T06:23:31;112.57;;;54.45;;
13981;SDS011;7065;50.880;5.502;2023-05-08T06:25:57;103.28;;;54.05;;
13981;SDS011;7065;50.880;5.502;2023-05-08T06:28:23;103.80;;;53.65;;
13981;SDS011;7065;50.880;5.502;2023-05-08T06:30:50;106.85;;;55.50;;
13981;SDS011;7065;50.880;5.502;2023-05-08T06:33:16;113.20;;;56.67;;
13981;SDS011;7065;50.880;5.502;2023-05-08T06:35:45;113.18;;;56.67;;
13981;SDS011;7065;50.880;5.502;2023-05-08T06:38:12;119.55;;;58.63;;
13981;SDS011;7065;50.880;5.502;2023-05-08T06:40:41;116.45;;;58.67;;
13981;SDS011;7065;50.880;5.502;2023-05-08T06:43:08;122.95;;;59.97;;
13981;SDS011;7065;50.880;5.502;2023-05-08T06:45:34;126.97;;;59.55;;
13981;SDS011;7065;50.880;5.502;2023-05-08T06:48:00;132.93;;;60.42;;
13981;SDS011;7065;50.880;5.502;2023-05-08T06:50:25;132.07;;;59.22;;
13981;SDS011;7065;50.880;5.502;2023-05-08T06:52:51;132.13;;;59.47;;
13981;SDS011;7065;50.880;5.502;2023-05-08T06:55:17;139.40;;;59.60;;
13981;SDS011;7065;50.880;5.502;2023-05-08T06:57:42;134.10;;;58.75;;
13981;SDS011;7065;50.880;5.502;2023-05-08T07:00:08;143.65;;;61.60;;
13981;SDS011;7065;50.880;5.502;2023-05-08T07:02:34;136.43;;;58.38;;
13981;SDS011;7065;50.880;5.502;2023-05-08T07:05:00;144.30;;;58.95;;
13981;SDS011;7065;50.880;5.502;2023-05-08T07:07:26;144.32;;;59.80;;
13981;SDS011;7065;50.880;5.502;2023-05-08T07:09:52;144.02;;;57.08;;
13981;SDS011;7065;50.880;5.502;2023-05-08T07:12:18;154.70;;;58.33;;
13981;SDS011;7065;50.880;5.502;2023-05-08T07:14:44;144.55;;;57.78;;
13981;SDS011;7065;50.880;5.502;2023-05-08T07:17:09;146.88;;;58.70;;
13981;SDS011;7065;50.880;5.502;2023-05-08T07:19:35;145.85;;;57.00;;
13981;SDS011;7065;50.880;5.502;2023-05-08T07:22:02;138.73;;;55.90;;
13981;SDS011;7065;50.880;5.502;2023-05-08T07:24:28;131.73;;;54.15;;
13981;SDS011;7065;50.880;5.502;2023-05-08T07:26:54;126.45;;;53.35;;
13981;SDS011;7065;50.880;5.502;2023-05-08T07:29:20;136.35;;;55.28;;
13981;SDS011;7065;50.880;5.502;2023-05-08T07:31:46;120.40;;;52.35;;
13981;SDS011;7065;50.880;5.502;2023-05-08T07:34:12;130.00;;;54.72;;
13981;SDS011;7065;50.880;5.502;2023-05-08T07:36:39;116.60;;;54.40;;
13981;SDS011;7065;50.880;5.502;2023-05-08T07:39:04;117.47;;;52.65;;
13981;SDS011;7065;50.880;5.502;2023-05-08T07:41:30;114.70;;;55.60;;
13981;SDS011;7065;50.880;5.502;2023-05-08T07:43:56;112.30;;;54.67;;
13981;SDS011;7065;50.880;5.502;2023-05-08T07:46:22;112.95;;;54.70;;
13981;SDS011;7065;50.880;5.502;2023-05-08T07:48:48;100.88;;;51.28;;
13981;SDS011;7065;50.880;5.502;2023-05-08T07:51:14;106.10;;;52.85;;
13981;SDS011;7065;50.880;5.502;2023-05-08T07:53:39;108.50;;;52.00;;
13981;SDS011;7065;50.880;5.502;2023-05-08T07:56:05;104.95;;;50.25;;
13981;SDS011;7065;50.880;5.502;2023-05-08T07:58:31;106.50;;;52.60;;
13981;SDS011;7065;50.880;5.502;2023-05-08T08:00:58;95.45;;;49.80;;
13981;SDS011;7065;50.880;5.502;2023-05-08T08:03:23;98.68;;;51.90;;
13981;SDS011;7065;50.880;5.502;2023-05-08T08:05:49;97.80;;;51.05;;
13981;SDS011;7065;50.880;5.502;2023-05-08T08:08:15;95.35;;;50.83;;
13981;SDS011;7065;50.880;5.502;2023-05-08T08:10:41;92.45;;;49.05;;
13981;SDS011;7065;50.880;5.502;2023-05-08T08:13:06;86.20;;;50.03;;
13981;SDS011;7065;50.880;5.502;2023-05-08T08:15:32;90.97;;;50.40;;
13981;SDS011;7065;50.880;5.502;2023-05-08T08:17:58;88.05;;;49.42;;
13981;SDS011;7065;50.880;5.502;2023-05-08T08:20:23;92.20;;;50.08;;
13981;SDS011;7065;50.880;5.502;2023-05-08T08:22:49;90.22;;;49.42;;
13981;SDS011;7065;50.880;5.502;2023-05-08T08:25:15;93.32;;;51.40;;
13981;SDS011;7065;50.880;5.502;2023-05-08T08:27:40;86.68;;;49.30;;
13981;SDS011;7065;50.880;5.502;2023-05-08T08:30:06;84.10;;;47.85;;
13981;SDS011;7065;50.880;5.502;2023-05-08T08:32:32;89.65;;;49.25;;
13981;SDS011;7065;50.880;5.502;2023-05-08T08:34:58;77.78;;;45.50;;
13981;SDS011;7065;50.880;5.502;2023-05-08T08:37:24;88.07;;;49.97;;
13981;SDS011;7065;50.880;5.502;2023-05-08T08:39:50;89.50;;;50.05;;
13981;SDS011;7065;50.880;5.502;2023-05-08T08:42:16;87.00;;;49.20;;
13981;SDS011;7065;50.880;5.502;2023-05-08T08:44:42;84.05;;;48.70;;
13981;SDS011;7065;50.880;5.502;2023-05-08T08:47:09;95.97;;;50.63;;
13981;SDS011;7065;50.880;5.502;2023-05-08T08:49:47;97.05;;;53.47;;
13981;SDS011;7065;50.880;5.502;2023-05-08T08:55:03;101.82;;;53.70;;
13981;SDS011;7065;50.880;5.502;2023-05-08T08:57:35;99.25;;;50.83;;
13981;SDS011;7065;50.880;5.502;2023-05-08T09:00:06;96.30;;;50.75;;
13981;SDS011;7065;50.880;5.502;2023-05-08T09:02:35;93.38;;;51.88;;
13981;SDS011;7065;50.880;5.502;2023-05-08T09:05:01;98.85;;;51.00;;
13981;SDS011;7065;50.880;5.502;2023-05-08T09:07:27;88.32;;;48.92;;
13981;SDS011;7065;50.880;5.502;2023-05-08T09:09:54;85.07;;;47.40;;
13981;SDS011;7065;50.880;5.502;2023-05-08T09:12:20;79.05;;;45.72;;
13981;SDS011;7065;50.880;5.502;2023-05-08T09:14:46;83.65;;;48.63;;
13981;SDS011;7065;50.880;5.502;2023-05-08T09:17:12;78.43;;;46.63;;
13981;SDS011;7065;50.880;5.502;2023-05-08T09:19:38;75.32;;;44.63;;
13981;SDS011;7065;50.880;5.502;2023-05-08T09:22:05;70.47;;;41.38;;
13981;SDS011;7065;50.880;5.502;2023-05-08T09:27:20;65.18;;;41.13;;
13981;SDS011;7065;50.880;5.502;2023-05-08T09:30:00;69.75;;;43.15;;
13981;SDS011;7065;50.880;5.502;2023-05-08T09:32:26;63.50;;;40.03;;
13981;SDS011;7065;50.880;5.502;2023-05-08T09:34:57;61.88;;;39.90;;
13981;SDS011;7065;50.880;5.502;2023-05-08T09:37:23;72.88;;;43.60;;
13981;SDS011;7065;50.880;5.502;2023-05-08T09:39:49;71.47;;;44.90;;
13981;SDS011;7065;50.880;5.502;2023-05-08T09:42:15;71.05;;;41.92;;
13981;SDS011;7065;50.880;5.502;2023-05-08T09:44:51;69.35;;;41.28;;
13981;SDS011;7065;50.880;5.502;2023-05-08T09:49:58;78.03;;;45.85;;
13981;SDS011;7065;50.880;5.502;2023-05-08T09:52:26;76.68;;;45.83;;
13981;SDS011;7065;50.880;5.502;2023-05-08T09:54:56;79.10;;;49.00;;
13981;SDS011;7065;50.880;5.502;2023-05-08T09:57:25;76.18;;;47.30;;
13981;SDS011;7065;50.880;5.502;2023-05-08T10:02:32;73.72;;;45.97;;
13981;SDS011;7065;50.880;5.502;2023-05-08T10:04:58;77.13;;;47.08;;
13981;SDS011;7065;50.880;5.502;2023-05-08T10:07:26;78.47;;;46.63;;
13981;SDS011;7065;50.880;5.502;2023-05-08T10:09:56;78.35;;;46.50;;
13981;SDS011;7065;50.880;5.502;2023-05-08T10:12:24;78.30;;;48.72;;
13981;SDS011;7065;50.880;5.502;2023-05-08T10:14:51;80.10;;;48.05;;
13981;SDS011;7065;50.880;5.502;2023-05-08T10:17:19;78.97;;;47.58;;
13981;SDS011;7065;50.880;5.502;2023-05-08T10:20:11;77.88;;;49.88;;
13981;SDS011;7065;50.880;5.502;2023-05-08T10:22:40;76.00;;;46.38;;
13981;SDS011;7065;50.880;5.502;2023-05-08T10:25:09;73.68;;;46.70;;
13981;SDS011;7065;50.880;5.502;2023-05-08T10:27:44;69.18;;;45.97;;
13981;SDS011;7065;50.880;5.502;2023-05-08T10:30:25;75.15;;;44.22;;
13981;SDS011;7065;50.880;5.502;2023-05-08T10:32:51;70.65;;;45.33;;
13981;SDS011;7065;50.880;5.502;2023-05-08T10:35:22;71.38;;;45.65;;
13981;SDS011;7065;50.880;5.502;2023-05-08T10:37:48;71.80;;;47.58;;
13981;SDS011;7065;50.880;5.502;2023-05-08T10:40:14;65.20;;;43.13;;
13981;SDS011;7065;50.880;5.502;2023-05-08T10:42:40;68.80;;;44.13;;
13981;SDS011;7065;50.880;5.502;2023-05-08T10:45:06;67.70;;;43.92;;
13981;SDS011;7065;50.880;5.502;2023-05-08T10:53:04;52.13;;;37.20;;
13981;SDS011;7065;50.880;5.502;2023-05-08T10:55:38;58.03;;;39.92;;
13981;SDS011;7065;50.880;5.502;2023-05-08T11:03:27;58.15;;;39.00;;
13981;SDS011;7065;50.880;5.502;2023-05-08T11:05:54;57.08;;;38.10;;
13981;SDS011;7065;50.880;5.502;2023-05-08T11:08:22;49.45;;;34.47;;
13981;SDS011;7065;50.880;5.502;2023-05-08T11:10:51;48.03;;;35.38;;
13981;SDS011;7065;50.880;5.502;2023-05-08T11:13:33;47.90;;;34.20;;
13981;SDS011;7065;50.880;5.502;2023-05-08T11:15:59;52.55;;;37.42;;
13981;SDS011;7065;50.880;5.502;2023-05-08T11:18:25;52.28;;;37.45;;
13981;SDS011;7065;50.880;5.502;2023-05-08T11:20:59;50.05;;;35.35;;
13981;SDS011;7065;50.880;5.502;2023-05-08T11:23:33;44.97;;;33.60;;
13981;SDS011;7065;50.880;5.502;2023-05-08T11:26:02;49.45;;;34.45;;
13981;SDS011;7065;50.880;5.502;2023-05-08T11:28:40;44.15;;;32.28;;
13981;SDS011;7065;50.880;5.502;2023-05-08T11:31:23;47.92;;;33.88;;
13981;SDS011;7065;50.880;5.502;2023-05-08T11:37:09;38.88;;;28.52;;
13981;SDS011;7065;50.880;5.502;2023-05-08T11:39:35;40.30;;;30.65;;
13981;SDS011;7065;50.880;5.502;2023-05-08T11:44:57;33.17;;;24.42;;
13981;SDS011;7065;50.880;5.502;2023-05-08T11:47:52;34.47;;;25.13;;
13981;SDS011;7065;50.880;5.502;2023-05-08T11:50:24;38.03;;;26.08;;
13981;SDS011;7065;50.880;5.502;2023-05-08T11:52:50;35.58;;;24.40;;
13981;SDS011;7065;50.880;5.502;2023-05-08T11:55:16;35.38;;;25.42;;
13981;SDS011;7065;50.880;5.502;2023-05-08T11:57:43;35.72;;;25.25;;
13981;SDS011;7065;50.880;5.502;2023-05-08T12:00:09;34.63;;;25.27;;
13981;SDS011;7065;50.880;5.502;2023-05-08T12:02:36;35.55;;;25.92;;
13981;SDS011;7065;50.880;5.502;2023-05-08T12:05:07;38.10;;;26.50;;
13981;SDS011;7065;50.880;5.502;2023-05-08T12:07:43;26.88;;;19.38;;
13981;SDS011;7065;50.880;5.502;2023-05-08T12:10:13;25.63;;;18.75;;
13981;SDS011;7065;50.880;5.502;2023-05-08T12:12:39;25.27;;;19.75;;
13981;SDS011;7065;50.880;5.502;2023-05-08T12:15:07;30.80;;;22.25;;
13981;SDS011;7065;50.880;5.502;2023-05-08T12:17:33;31.65;;;24.00;;
13981;SDS011;7065;50.880;5.502;2023-05-08T12:20:09;32.33;;;23.80;;
13981;SDS011;7065;50.880;5.502;2023-05-08T12:22:40;30.95;;;23.15;;
13981;SDS011;7065;50.880;5.502;2023-05-08T12:25:08;27.48;;;20.15;;
13981;SDS011;7065;50.880;5.502;2023-05-08T12:27:35;28.83;;;20.95;;
13981;SDS011;7065;50.880;5.502;2023-05-08T12:30:08;26.95;;;20.15;;
13981;SDS011;7065;50.880;5.502;2023-05-08T12:32:36;26.33;;;19.77;;
13981;SDS011;7065;50.880;5.502;2023-05-08T12:35:03;28.02;;;19.90;;
13981;SDS011;7065;50.880;5.502;2023-05-08T12:37:30;23.63;;;17.75;;
13981;SDS011;7065;50.880;5.502;2023-05-08T12:39:56;22.80;;;16.88;;
13981;SDS011;7065;50.880;5.502;2023-05-08T12:42:23;22.95;;;16.33;;
13981;SDS011;7065;50.880;5.502;2023-05-08T12:45:06;21.23;;;14.93;;
13981;SDS011;7065;50.880;5.502;2023-05-08T12:47:32;23.27;;;17.23;;
13981;SDS011;7065;50.880;5.502;2023-05-08T12:49:58;24.30;;;17.92;;
13981;SDS011;7065;50.880;5.502;2023-05-08T12:52:24;30.08;;;22.45;;
13981;SDS011;7065;50.880;5.502;2023-05-08T12:54:52;29.85;;;22.50;;
13981;SDS011;7065;50.880;5.502;2023-05-08T12:57:18;26.60;;;20.52;;
13981;SDS011;7065;50.880;5.502;2023-05-08T12:59:46;29.70;;;22.25;;
13981;SDS011;7065;50.880;5.502;2023-05-08T13:02:13;33.70;;;24.13;;
13981;SDS011;7065;50.880;5.502;2023-05-08T13:04:44;28.23;;;20.02;;
13981;SDS011;7065;50.880;5.502;2023-05-08T13:07:10;26.30;;;20.38;;
13981;SDS011;7065;50.880;5.502;2023-05-08T13:09:37;27.98;;;20.60;;
13981;SDS011;7065;50.880;5.502;2023-05-08T13:12:03;33.22;;;23.42;;
13981;SDS011;7065;50.880;5.502;2023-05-08T13:14:30;29.90;;;22.58;;
13981;SDS011;7065;50.880;5.502;2023-05-08T13:16:56;30.05;;;23.67;;
13981;SDS011;7065;50.880;5.502;2023-05-08T13:19:22;26.58;;;19.08;;
13981;SDS011;7065;50.880;5.502;2023-05-08T13:21:48;30.98;;;21.77;;
13981;SDS011;7065;50.880;5.502;2023-05-08T13:24:14;27.67;;;21.05;;
13981;SDS011;7065;50.880;5.502;2023-05-08T13:26:40;32.53;;;23.50;;
13981;SDS011;7065;50.880;5.502;2023-05-08T13:29:06;27.42;;;19.85;;
13981;SDS011;7065;50.880;5.502;2023-05-08T13:31:31;27.23;;;22.63;;
13981;SDS011;7065;50.880;5.502;2023-05-08T13:33:57;34.42;;;24.85;;
13981;SDS011;7065;50.880;5.502;2023-05-08T13:36:23;25.48;;;19.50;;
13981;SDS011;7065;50.880;5.502;2023-05-08T13:38:49;27.35;;;21.90;;
13981;SDS011;7065;50.880;5.502;2023-05-08T13:41:15;30.08;;;22.38;;
13981;SDS011;7065;50.880;5.502;2023-05-08T13:43:41;25.42;;;21.70;;
13981;SDS011;7065;50.880;5.502;2023-05-08T13:46:07;28.10;;;21.05;;
13981;SDS011;7065;50.880;5.502;2023-05-08T13:48:33;27.98;;;21.42;;
13981;SDS011;7065;50.880;5.502;2023-05-08T13:50:58;26.35;;;19.45;;
13981;SDS011;7065;50.880;5.502;2023-05-08T13:53:24;25.98;;;20.73;;
13981;SDS011;7065;50.880;5.502;2023-05-08T13:55:50;27.45;;;20.15;;
13981;SDS011;7065;50.880;5.502;2023-05-08T13:58:16;25.52;;;18.95;;
13981;SDS011;7065;50.880;5.502;2023-05-08T14:00:42;23.73;;;18.67;;
13981;SDS011;7065;50.880;5.502;2023-05-08T14:03:07;22.40;;;17.85;;
13981;SDS011;7065;50.880;5.502;2023-05-08T14:05:33;25.25;;;19.55;;
13981;SDS011;7065;50.880;5.502;2023-05-08T14:07:59;29.15;;;21.83;;
13981;SDS011;7065;50.880;5.502;2023-05-08T14:10:25;25.52;;;20.80;;
13981;SDS011;7065;50.880;5.502;2023-05-08T14:12:51;24.42;;;19.67;;
13981;SDS011;7065;50.880;5.502;2023-05-08T14:15:17;25.35;;;21.20;;
13981;SDS011;7065;50.880;5.502;2023-05-08T14:17:43;26.50;;;21.42;;
13981;SDS011;7065;50.880;5.502;2023-05-08T14:20:08;24.25;;;19.40;;
13981;SDS011;7065;50.880;5.502;2023-05-08T14:22:34;25.42;;;20.73;;
13981;SDS011;7065;50.880;5.502;2023-05-08T14:25:00;27.30;;;20.10;;
13981;SDS011;7065;50.880;5.502;2023-05-08T14:27:26;23.95;;;18.70;;
13981;SDS011;7065;50.880;5.502;2023-05-08T14:29:51;21.15;;;17.20;;
13981;SDS011;7065;50.880;5.502;2023-05-08T14:32:18;21.95;;;17.45;;
13981;SDS011;7065;50.880;5.502;2023-05-08T14:34:43;22.58;;;17.63;;
13981;SDS011;7065;50.880;5.502;2023-05-08T14:37:09;20.95;;;17.50;;
13981;SDS011;7065;50.880;5.502;2023-05-08T14:39:36;23.70;;;18.95;;
13981;SDS011;7065;50.880;5.502;2023-05-08T14:42:03;18.58;;;15.60;;
13981;SDS011;7065;50.880;5.502;2023-05-08T14:44:28;23.42;;;19.77;;
13981;SDS011;7065;50.880;5.502;2023-05-08T14:46:54;25.55;;;19.98;;
13981;SDS011;7065;50.880;5.502;2023-05-08T14:49:20;21.92;;;19.00;;
13981;SDS011;7065;50.880;5.502;2023-05-08T14:51:45;21.73;;;18.25;;
13981;SDS011;7065;50.880;5.502;2023-05-08T14:54:12;21.17;;;17.52;;
13981;SDS011;7065;50.880;5.502;2023-05-08T14:56:37;19.85;;;17.33;;
13981;SDS011;7065;50.880;5.502;2023-05-08T14:59:03;22.02;;;17.63;;
13981;SDS011;7065;50.880;5.502;2023-05-08T15:01:29;17.70;;;15.50;;
13981;SDS011;7065;50.880;5.502;2023-05-08T15:03:54;18.95;;;16.90;;
13981;SDS011;7065;50.880;5.502;2023-05-08T15:06:21;20.33;;;17.27;;
13981;SDS011;7065;50.880;5.502;2023-05-08T15:08:48;17.58;;;14.73;;
13981;SDS011;7065;50.880;5.502;2023-05-08T15:11:13;21.25;;;18.45;;
13981;SDS011;7065;50.880;5.502;2023-05-08T15:13:39;19.60;;;17.23;;
13981;SDS011;7065;50.880;5.502;2023-05-08T15:16:05;20.63;;;18.42;;
13981;SDS011;7065;50.880;5.502;2023-05-08T15:18:35;18.52;;;15.38;;
13981;SDS011;7065;50.880;5.502;2023-05-08T15:21:03;17.48;;;14.98;;
13981;SDS011;7065;50.880;5.502;2023-05-08T15:23:29;19.17;;;15.02;;
13981;SDS011;7065;50.880;5.502;2023-05-08T15:25:55;20.05;;;16.98;;
13981;SDS011;7065;50.880;5.502;2023-05-08T15:28:20;19.17;;;17.17;;